createdAt,value
2022-11-26T00:00:58.822Z,100323.73
2022-11-26T00:03:34.989Z,100316.55
2022-11-26T00:04:43.830Z,100325.56
2022-11-26T00:07:13.484Z,100316.41
2022-11-26T00:08:27.275Z,100315.58
2022-11-26T00:09:37.018Z,100319.98
2022-11-26T00:10:49.720Z,100314.79
2022-11-26T00:13:27.855Z,100315.95
2022-11-26T00:15:53.196Z,100312.99
2022-11-26T00:17:04.253Z,100314.09
2022-11-26T00:18:15.012Z,100315.77
2022-11-26T00:19:24.051Z,100311.73
2022-11-26T00:20:33.048Z,100309.75
2022-11-26T00:21:43.628Z,100315.44
2022-11-26T00:22:56.632Z,100317.78
2022-11-26T00:25:30.770Z,100314.67
2022-11-26T00:26:39.617Z,100315.84
2022-11-26T00:27:49.604Z,100323.56
2022-11-26T00:29:01.069Z,100315.25
2022-11-26T00:30:25.479Z,100313.81
2022-11-26T00:31:34.257Z,100318.77
2022-11-26T00:32:44.514Z,100308.95
2022-11-26T00:33:54.556Z,100311.42
2022-11-26T00:36:27.132Z,100310.58
2022-11-26T00:39:06.262Z,100312.84
2022-11-26T00:41:40.625Z,100308.50
2022-11-26T00:45:37.681Z,100302.73
2022-11-26T00:46:50.163Z,100307.47
2022-11-26T00:48:03.351Z,100311.19
2022-11-26T00:49:12.114Z,100310.70
2022-11-26T00:50:26.226Z,100304.89
2022-11-26T00:52:54.882Z,100306.95
2022-11-26T00:54:06.076Z,100303.98
2022-11-26T00:56:50.186Z,100303.98
2022-11-26T00:57:59.496Z,100310.39
2022-11-26T01:00:50.534Z,100303.98
2022-11-26T01:01:59.976Z,100309.59
2022-11-26T01:03:09.476Z,100315.58
2022-11-26T01:04:19.117Z,100314.61
2022-11-26T01:05:31.984Z,100308.31
2022-11-26T01:08:09.428Z,100308.56
2022-11-26T01:09:21.486Z,100309.62
2022-11-26T01:10:32.114Z,100308.50
2022-11-26T01:11:40.995Z,100314.33
2022-11-26T01:12:51.856Z,100303.45
2022-11-26T01:14:00.910Z,100314.27
2022-11-26T01:16:27.611Z,100303.22
2022-11-26T01:17:37.157Z,100304.94
2022-11-26T01:18:47.483Z,100314.91
2022-11-26T01:19:55.980Z,100310.82
2022-11-26T01:21:04.862Z,100306.76
2022-11-26T01:23:34.246Z,100312.02
2022-11-26T01:24:43.162Z,100308.86
2022-11-26T01:25:53.870Z,100316.48
2022-11-26T01:27:03.385Z,100318.87
2022-11-26T01:29:30.259Z,100311.45
2022-11-26T01:30:40.235Z,100313.69
2022-11-26T01:31:49.263Z,100319.36
2022-11-26T01:32:59.925Z,100317.75
2022-11-26T01:34:11.235Z,100316.33
2022-11-26T01:36:36.662Z,100326.52
2022-11-26T01:37:45.542Z,100324.20
2022-11-26T01:40:20.458Z,100321.52
2022-11-26T01:41:47.312Z,100322.50
2022-11-26T01:42:57.681Z,100325.66
2022-11-26T01:44:07.843Z,100323.51
2022-11-26T01:45:18.772Z,100328.73
2022-11-26T01:47:47.127Z,100318.67
2022-11-26T01:49:01.979Z,100324.56
2022-11-26T01:50:25.398Z,100316.91
2022-11-26T01:51:35.525Z,100323.41
2022-11-26T01:52:54.604Z,100325.56
2022-11-26T01:54:04.037Z,100325.92
2022-11-26T01:55:16.083Z,100328.29
2022-11-26T01:56:37.527Z,100327.63
2022-11-26T01:57:47.712Z,100331.89
2022-11-26T01:58:58.670Z,100329.70
2022-11-26T02:00:08.384Z,100336.76
2022-11-26T02:01:20.705Z,100338.19
2022-11-26T02:02:29.712Z,100333.58
2022-11-26T02:03:59.994Z,100337.02
2022-11-26T02:05:15.370Z,100342.06
2022-11-26T02:06:25.946Z,100345.04
2022-11-26T02:07:35.602Z,100338.38
2022-11-26T02:08:44.825Z,100343.25
2022-11-26T02:09:53.461Z,100346.54
2022-11-26T02:12:20.609Z,100336.25
2022-11-26T02:13:29.545Z,100349.13
2022-11-26T02:14:40.334Z,100342.95
2022-11-26T02:15:51.190Z,100346.34
2022-11-26T02:17:08.663Z,100344.61
2022-11-26T02:18:17.927Z,100342.41
2022-11-26T02:19:44.709Z,100345.39
2022-11-26T02:20:55.832Z,100348.44
2022-11-26T02:23:41.927Z,100351.74
2022-11-26T02:24:52.475Z,100356.77
2022-11-26T02:26:05.983Z,100357.20
2022-11-26T02:27:33.853Z,100359.42
2022-11-26T02:28:59.261Z,100360.09
2022-11-26T02:30:12.392Z,100352.30
2022-11-26T02:31:24.691Z,100352.78
2022-11-26T02:32:44.302Z,100359.48
2022-11-26T02:33:54.893Z,100360.65
2022-11-26T02:36:35.043Z,100352.63
2022-11-26T02:37:57.577Z,100354.05
2022-11-26T02:39:14.396Z,100362.45
2022-11-26T02:40:23.659Z,100358.87
2022-11-26T02:41:34.338Z,100366.44
2022-11-26T02:42:42.675Z,100364.81
2022-11-26T02:43:51.492Z,100362.02
2022-11-26T02:46:20.526Z,100353.95
2022-11-26T02:47:29.774Z,100361.66
2022-11-26T02:49:57.347Z,100367.03
2022-11-26T02:52:26.966Z,100351.17
2022-11-26T02:53:37.804Z,100366.53
2022-11-26T02:54:50.112Z,100358.56
2022-11-26T02:57:18.498Z,100361.35
2022-11-26T02:58:29.192Z,100363.73
2022-11-26T02:59:38.683Z,100361.59
2022-11-26T03:00:49.140Z,100364.52
2022-11-26T03:04:40.216Z,100361.70
2022-11-26T03:05:53.447Z,100367.61
2022-11-26T03:07:04.006Z,100367.42
2022-11-26T03:08:18.353Z,100368.84
2022-11-26T03:09:27.381Z,100367.02
2022-11-26T03:10:36.655Z,100368.00
2022-11-26T03:11:45.090Z,100369.16
2022-11-26T03:12:54.923Z,100373.14
2022-11-26T03:14:04.566Z,100372.41
2022-11-26T03:15:13.145Z,100371.98
2022-11-26T03:16:22.807Z,100372.44
2022-11-26T03:17:33.527Z,100378.05
2022-11-26T03:18:42.967Z,100375.83
2022-11-26T03:19:51.765Z,100377.60
2022-11-26T03:21:00.243Z,100375.59
2022-11-26T03:22:08.717Z,100372.09
2022-11-26T03:23:17.916Z,100374.03
2022-11-26T03:24:27.759Z,100374.50
2022-11-26T03:25:38.154Z,100368.86
2022-11-26T03:26:47.543Z,100372.20
2022-11-26T03:27:56.549Z,100383.84
2022-11-26T03:29:05.591Z,100373.55
2022-11-26T03:30:15.186Z,100376.14
2022-11-26T03:31:23.534Z,100381.88
2022-11-26T03:32:39.392Z,100379.56
2022-11-26T03:33:48.739Z,100379.44
2022-11-26T03:34:59.060Z,100384.12
2022-11-26T03:36:07.933Z,100382.46
2022-11-26T03:37:17.094Z,100378.51
2022-11-26T03:40:01.937Z,100381.36
2022-11-26T03:41:11.353Z,100382.40
2022-11-26T03:42:20.878Z,100384.02
2022-11-26T03:43:29.256Z,100388.95
2022-11-26T03:44:39.000Z,100383.55
2022-11-26T03:45:49.179Z,100388.67
2022-11-26T03:46:57.665Z,100392.25
2022-11-26T03:48:07.538Z,100391.97
2022-11-26T03:49:16.967Z,100390.98
2022-11-26T03:50:26.693Z,100391.33
2022-11-26T03:51:37.164Z,100392.44
2022-11-26T03:52:45.895Z,100387.59
2022-11-26T03:53:55.310Z,100386.16
2022-11-26T03:56:19.230Z,100387.30
2022-11-26T03:57:28.244Z,100390.59
2022-11-26T03:58:37.725Z,100392.72
2022-11-26T03:59:46.063Z,100398.22
2022-11-26T04:00:55.795Z,100402.52
2022-11-26T04:02:05.063Z,100394.31
2022-11-26T04:03:14.680Z,100391.77
2022-11-26T04:04:23.055Z,100403.97
2022-11-26T04:05:32.609Z,100397.88
2022-11-26T04:06:41.409Z,100399.42
2022-11-26T04:07:49.976Z,100398.22
2022-11-26T04:08:59.484Z,100401.67
2022-11-26T04:10:09.095Z,100397.89
2022-11-26T04:11:17.559Z,100405.03
2022-11-26T04:12:26.044Z,100398.17
2022-11-26T04:13:34.931Z,100409.12
2022-11-26T04:14:44.028Z,100406.84
2022-11-26T04:15:52.470Z,100405.11
2022-11-26T04:17:01.581Z,100405.67
2022-11-26T04:18:10.004Z,100397.45
2022-11-26T04:19:18.878Z,100411.98
2022-11-26T04:20:28.596Z,100410.08
2022-11-26T04:21:36.964Z,100411.25
2022-11-26T04:22:45.402Z,100405.41
2022-11-26T04:23:53.883Z,100417.89
2022-11-26T04:25:05.158Z,100414.77
2022-11-26T04:26:14.861Z,100413.21
2022-11-26T04:27:23.655Z,100412.32
2022-11-26T04:28:33.166Z,100413.09
2022-11-26T04:29:42.004Z,100411.28
2022-11-26T04:30:50.550Z,100415.47
2022-11-26T04:32:01.304Z,100411.47
2022-11-26T04:33:09.802Z,100405.62
2022-11-26T04:34:18.133Z,100412.20
2022-11-26T04:35:26.606Z,100408.62
2022-11-26T04:36:35.995Z,100411.22
2022-11-26T04:39:00.591Z,100408.02
2022-11-26T04:40:10.041Z,100418.25
2022-11-26T04:41:19.630Z,100407.80
2022-11-26T04:42:28.937Z,100417.02
2022-11-26T04:43:38.307Z,100411.25
2022-11-26T04:44:47.324Z,100416.00
2022-11-26T04:45:56.816Z,100411.99
2022-11-26T04:47:06.539Z,100410.37
2022-11-26T04:48:15.359Z,100419.56
2022-11-26T04:49:23.844Z,100410.11
2022-11-26T04:50:32.702Z,100413.48
2022-11-26T04:51:41.340Z,100414.00
2022-11-26T04:52:51.474Z,100417.09
2022-11-26T04:54:03.136Z,100415.93
2022-11-26T04:55:11.266Z,100412.87
2022-11-26T04:56:19.905Z,100415.02
2022-11-26T04:57:28.367Z,100416.41
2022-11-26T04:58:36.929Z,100423.22
2022-11-26T04:59:48.526Z,100428.19
2022-11-26T05:00:57.460Z,100421.81
2022-11-26T05:02:06.900Z,100419.64
2022-11-26T05:03:16.407Z,100424.59
2022-11-26T05:04:32.972Z,100415.28
2022-11-26T05:05:42.531Z,100420.27
2022-11-26T05:06:51.280Z,100416.33
2022-11-26T05:08:00.578Z,100433.00
2022-11-26T05:09:09.883Z,100432.39
2022-11-26T05:10:19.852Z,100437.25
2022-11-26T05:11:29.699Z,100434.83
2022-11-26T05:12:38.457Z,100433.31
2022-11-26T05:13:47.253Z,100438.45
2022-11-26T05:16:10.987Z,100433.66
2022-11-26T05:17:21.296Z,100438.91
2022-11-26T05:18:30.446Z,100447.33
2022-11-26T05:19:39.845Z,100441.58
2022-11-26T05:22:04.346Z,100450.09
2022-11-26T05:23:19.907Z,100453.61
2022-11-26T05:24:29.150Z,100449.55
2022-11-26T05:25:39.600Z,100454.39
2022-11-26T05:26:52.431Z,100447.75
2022-11-26T05:28:00.188Z,100455.48
2022-11-26T05:29:08.981Z,100462.74
2022-11-26T05:30:18.739Z,100459.52
2022-11-26T05:31:28.451Z,100458.13
2022-11-26T05:32:38.005Z,100467.30
2022-11-26T05:33:47.419Z,100468.53
2022-11-26T05:36:34.102Z,100474.45
2022-11-26T05:37:43.032Z,100483.80
2022-11-26T05:38:52.131Z,100479.70
2022-11-26T05:40:00.360Z,100481.72
2022-11-26T05:41:09.185Z,100480.16
2022-11-26T05:42:20.095Z,100478.59
2022-11-26T05:43:30.686Z,100484.11
2022-11-26T05:44:39.406Z,100487.66
2022-11-26T05:45:48.192Z,100483.78
2022-11-26T05:46:57.837Z,100481.72
2022-11-26T05:48:06.659Z,100478.78
2022-11-26T05:49:16.791Z,100479.31
2022-11-26T05:50:25.577Z,100487.75
2022-11-26T05:51:35.541Z,100482.88
2022-11-26T05:52:44.116Z,100483.45
2022-11-26T05:53:52.864Z,100484.44
2022-11-26T05:55:02.089Z,100488.97
2022-11-26T05:56:12.326Z,100480.41
2022-11-26T05:57:21.767Z,100490.41
2022-11-26T05:58:30.566Z,100496.12
2022-11-26T05:59:40.054Z,100491.14
2022-11-26T06:00:49.561Z,100502.88
2022-11-26T06:01:58.362Z,100495.19
2022-11-26T06:03:09.693Z,100494.59
2022-11-26T06:04:18.485Z,100496.55
2022-11-26T06:05:27.054Z,100502.72
2022-11-26T06:07:52.222Z,100493.80
2022-11-26T06:09:02.647Z,100503.58
2022-11-26T06:10:13.800Z,100500.53
2022-11-26T06:12:37.011Z,100499.42
2022-11-26T06:13:45.819Z,100500.53
2022-11-26T06:14:54.862Z,100496.98
2022-11-26T06:16:03.922Z,100498.97
2022-11-26T06:17:15.452Z,100501.91
2022-11-26T06:18:25.263Z,100509.30
2022-11-26T06:19:34.305Z,100503.40
2022-11-26T06:20:45.462Z,100507.16
2022-11-26T06:21:54.269Z,100512.77
2022-11-26T06:23:04.305Z,100509.46
2022-11-26T06:24:12.784Z,100504.64
2022-11-26T06:25:22.032Z,100511.05
2022-11-26T06:26:31.801Z,100513.76
2022-11-26T06:27:41.701Z,100514.67
2022-11-26T06:28:50.541Z,100512.21
2022-11-26T06:30:01.555Z,100511.58
2022-11-26T06:31:10.516Z,100511.35
2022-11-26T06:32:19.015Z,100521.87
2022-11-26T06:33:27.925Z,100519.16
2022-11-26T06:35:51.007Z,100507.22
2022-11-26T06:36:59.780Z,100518.77
2022-11-26T06:39:24.069Z,100511.33
2022-11-26T06:40:33.492Z,100520.32
2022-11-26T06:41:41.992Z,100508.33
2022-11-26T06:42:51.943Z,100514.09
2022-11-26T06:44:02.682Z,100511.16
2022-11-26T06:45:12.426Z,100518.16
2022-11-26T06:46:21.243Z,100521.87
2022-11-26T06:47:29.662Z,100514.92
2022-11-26T06:48:38.827Z,100516.25
2022-11-26T06:49:47.256Z,100516.83
2022-11-26T06:50:57.233Z,100513.65
2022-11-26T06:52:06.532Z,100510.41
2022-11-26T06:53:14.891Z,100514.10
2022-11-26T06:54:25.561Z,100514.34
2022-11-26T06:55:35.250Z,100518.16
2022-11-26T06:56:44.143Z,100514.78
2022-11-26T06:57:53.179Z,100521.84
2022-11-26T06:59:02.693Z,100517.20
2022-11-26T07:00:12.600Z,100525.89
2022-11-26T07:01:25.881Z,100524.68
2022-11-26T07:02:35.247Z,100526.03
2022-11-26T07:03:46.124Z,100526.56
2022-11-26T07:04:55.166Z,100529.80
2022-11-26T07:06:06.020Z,100524.14
2022-11-26T07:07:15.733Z,100528.30
2022-11-26T07:08:24.125Z,100526.42
2022-11-26T07:09:32.996Z,100534.60
2022-11-26T07:10:46.090Z,100529.62
2022-11-26T07:11:53.978Z,100533.38
2022-11-26T07:13:02.421Z,100538.06
2022-11-26T07:14:11.916Z,100539.46
2022-11-26T07:15:21.421Z,100546.85
2022-11-26T07:16:30.004Z,100547.88
2022-11-26T07:17:40.552Z,100546.31
2022-11-26T07:18:50.446Z,100547.48
2022-11-26T07:21:13.958Z,100544.56
2022-11-26T07:22:22.393Z,100548.31
2022-11-26T07:23:31.126Z,100549.71
2022-11-26T07:24:40.596Z,100553.86
2022-11-26T07:25:50.387Z,100548.17
2022-11-26T07:27:00.912Z,100553.91
2022-11-26T07:28:09.309Z,100553.45
2022-11-26T07:29:17.734Z,100551.09
2022-11-26T07:30:28.281Z,100545.42
2022-11-26T07:31:38.769Z,100549.70
2022-11-26T07:32:47.759Z,100545.52
2022-11-26T07:33:59.731Z,100551.88
2022-11-26T07:35:09.387Z,100548.42
2022-11-26T07:36:20.394Z,100545.89
2022-11-26T07:37:29.988Z,100544.33
2022-11-26T07:38:39.689Z,100542.77
2022-11-26T07:39:50.128Z,100545.13
2022-11-26T07:41:10.704Z,100547.38
2022-11-26T07:42:19.449Z,100548.63
2022-11-26T07:43:28.882Z,100548.09
2022-11-26T07:45:52.306Z,100544.45
2022-11-26T07:47:02.266Z,100549.47
2022-11-26T07:49:45.365Z,100542.63
2022-11-26T07:50:55.773Z,100550.75
2022-11-26T07:52:05.396Z,100547.11
2022-11-26T07:53:16.232Z,100547.94
2022-11-26T07:54:25.685Z,100546.79
2022-11-26T07:55:34.030Z,100556.28
2022-11-26T07:56:42.861Z,100557.38
2022-11-26T07:57:51.274Z,100556.72
2022-11-26T07:59:01.396Z,100557.69
2022-11-26T08:00:10.917Z,100563.07
2022-11-26T08:01:24.821Z,100565.79
2022-11-26T08:02:33.265Z,100566.70
2022-11-26T08:03:43.280Z,100561.33
2022-11-26T08:04:52.110Z,100557.58
2022-11-26T08:06:01.097Z,100563.55
2022-11-26T08:07:10.003Z,100566.68
2022-11-26T08:08:19.083Z,100573.36
2022-11-26T08:09:28.523Z,100571.16
2022-11-26T08:10:37.470Z,100570.70
2022-11-26T08:11:46.322Z,100564.15
2022-11-26T08:12:54.711Z,100564.78
2022-11-26T08:15:24.160Z,100562.91
2022-11-26T08:16:33.263Z,100572.23
2022-11-26T08:17:42.826Z,100575.16
2022-11-26T08:18:55.481Z,100574.52
2022-11-26T08:21:20.921Z,100564.91
2022-11-26T08:22:30.987Z,100577.98
2022-11-26T08:23:39.487Z,100577.47
2022-11-26T08:24:50.276Z,100577.83
2022-11-26T08:27:11.993Z,100578.48
2022-11-26T08:28:20.848Z,100583.14
2022-11-26T08:30:44.469Z,100583.97
2022-11-26T08:31:53.503Z,100584.41
2022-11-26T08:33:02.196Z,100583.55
2022-11-26T08:34:14.608Z,100583.26
2022-11-26T08:35:38.673Z,100582.94
2022-11-26T08:37:49.076Z,100584.53
2022-11-26T08:38:59.215Z,100587.25
2022-11-26T08:40:09.123Z,100590.44
2022-11-26T08:41:18.477Z,100587.59
2022-11-26T08:44:58.407Z,100591.07
2022-11-26T08:47:22.119Z,100579.78
2022-11-26T08:48:33.132Z,100584.72
2022-11-26T08:49:41.535Z,100582.23
2022-11-26T08:50:50.931Z,100584.17
2022-11-26T08:52:00.655Z,100574.62
2022-11-26T08:53:09.801Z,100584.29
2022-11-26T08:54:19.541Z,100580.55
2022-11-26T08:55:53.379Z,100581.08
2022-11-26T08:56:40.290Z,100579.78
2022-11-26T08:57:49.020Z,100585.75
2022-11-26T09:00:14.364Z,100581.30
2022-11-26T09:01:29.191Z,100580.83
2022-11-26T09:03:53.957Z,100581.69
2022-11-26T09:05:03.576Z,100586.49
2022-11-26T09:07:27.803Z,100585.58
2022-11-26T09:08:39.250Z,100588.05
2022-11-26T09:09:48.169Z,100591.02
2022-11-26T09:10:58.379Z,100591.40
2022-11-26T09:13:22.502Z,100586.25
2022-11-26T09:14:33.291Z,100598.25
2022-11-26T09:15:42.273Z,100588.70
2022-11-26T09:16:52.618Z,100596.84
2022-11-26T09:18:03.645Z,100600.42
2022-11-26T09:19:13.280Z,100598.50
2022-11-26T09:20:21.958Z,100593.84
2022-11-26T09:21:31.638Z,100600.59
2022-11-26T09:22:40.062Z,100594.89
2022-11-26T09:23:49.074Z,100604.26
2022-11-26T09:24:58.024Z,100603.05
2022-11-26T09:26:06.366Z,100593.75
2022-11-26T09:27:15.275Z,100606.75
2022-11-26T09:28:23.606Z,100599.53
2022-11-26T09:29:32.110Z,100605.50
2022-11-26T09:30:40.986Z,100609.93
2022-11-26T09:32:21.547Z,100606.53
2022-11-26T09:34:16.346Z,100604.92
2022-11-26T09:36:43.752Z,100603.75
2022-11-26T09:37:52.698Z,100617.75
2022-11-26T09:39:01.145Z,100615.41
2022-11-26T09:40:11.820Z,100612.95
2022-11-26T09:41:33.124Z,100625.62
2022-11-26T09:44:03.699Z,100623.65
2022-11-26T09:46:40.804Z,100618.78
2022-11-26T09:47:42.866Z,100625.02
2022-11-26T09:48:54.203Z,100628.22
2022-11-26T09:50:07.956Z,100626.87
2022-11-26T09:51:19.267Z,100627.32
2022-11-26T09:52:33.469Z,100624.29
2022-11-26T09:55:03.301Z,100620.88
2022-11-26T09:56:14.684Z,100625.76
2022-11-26T09:57:25.858Z,100621.53
2022-11-26T09:58:38.320Z,100627.13
2022-11-26T09:59:49.712Z,100632.00
2022-11-26T10:01:00.905Z,100626.27
2022-11-26T10:02:11.960Z,100632.68
2022-11-26T10:03:22.989Z,100634.69
2022-11-26T10:04:33.482Z,100624.30
2022-11-26T10:07:06.754Z,100628.71
2022-11-26T10:09:47.197Z,100632.03
2022-11-26T10:12:38.233Z,100635.94
2022-11-26T10:14:00.036Z,100638.86
2022-11-26T10:15:11.384Z,100641.46
2022-11-26T10:17:45.159Z,100639.57
2022-11-26T10:18:55.461Z,100637.35
2022-11-26T10:20:23.820Z,100634.89
2022-11-26T10:23:07.753Z,100640.69
2022-11-26T10:27:17.848Z,100644.09
2022-11-26T10:28:28.100Z,100647.73
2022-11-26T10:29:39.432Z,100648.73
2022-11-26T10:32:17.230Z,100646.02
2022-11-26T10:33:28.498Z,100644.61
2022-11-26T10:36:11.115Z,100649.20
2022-11-26T10:37:21.148Z,100657.97
2022-11-26T10:38:29.708Z,100648.47
2022-11-26T10:39:38.053Z,100648.67
2022-11-26T10:42:04.298Z,100652.83
2022-11-26T10:44:31.350Z,100650.97
2022-11-26T10:45:41.569Z,100646.84
2022-11-26T10:46:50.574Z,100651.22
2022-11-26T10:49:32.462Z,100640.75
2022-11-26T10:52:23.956Z,100646.22
2022-11-26T10:55:12.024Z,100649.27
2022-11-26T10:56:22.150Z,100651.95
2022-11-26T10:58:48.423Z,100648.77
2022-11-26T10:59:57.781Z,100648.62
2022-11-26T11:01:06.795Z,100657.64
2022-11-26T11:02:17.287Z,100657.05
2022-11-26T11:04:56.217Z,100662.39
2022-11-26T11:06:21.662Z,100660.95
2022-11-26T11:07:37.477Z,100662.88
2022-11-26T11:08:47.471Z,100677.39
2022-11-26T11:10:06.952Z,100672.01
2022-11-26T11:11:21.918Z,100664.98
2022-11-26T11:13:48.016Z,100668.25
2022-11-26T11:14:59.889Z,100682.59
2022-11-26T11:16:09.067Z,100675.20
2022-11-26T11:19:00.113Z,100668.77
2022-11-26T11:21:35.146Z,100671.68
2022-11-26T11:24:10.917Z,100670.79
2022-11-26T20:15:26.214Z,100985.84
2022-11-26T20:16:35.226Z,100980.58
2022-11-26T20:19:06.272Z,100985.39
2022-11-26T20:20:15.492Z,100980.09
2022-11-26T20:21:30.143Z,100982.41
2022-11-26T20:22:39.071Z,100986.50
2022-11-26T20:23:50.213Z,100983.84
2022-11-26T20:26:24.780Z,100987.36
2022-11-26T20:27:33.343Z,100991.84
2022-11-26T20:28:43.088Z,100980.80
2022-11-26T20:29:52.142Z,100983.18
2022-11-26T20:32:19.439Z,100972.57
2022-11-26T20:33:28.758Z,100977.97
2022-11-26T20:34:38.828Z,100975.05
2022-11-26T20:35:48.461Z,100976.63
2022-11-26T20:38:12.897Z,100966.09
2022-11-26T20:39:24.256Z,100975.95
2022-11-26T20:41:50.480Z,100967.30
2022-11-26T20:44:15.288Z,100966.07
2022-11-26T20:45:23.877Z,100965.50
2022-11-26T20:46:32.813Z,100964.41
2022-11-26T20:47:42.234Z,100964.30
2022-11-26T20:48:52.666Z,100972.05
2022-11-26T20:50:01.390Z,100976.59
2022-11-26T20:51:14.089Z,100973.84
2022-11-26T20:52:23.677Z,100971.09
2022-11-26T20:54:53.876Z,100975.00
2022-11-26T20:56:02.523Z,100975.20
2022-11-26T20:57:11.196Z,100984.84
2022-11-26T20:58:20.604Z,100979.51
2022-11-26T20:59:29.493Z,100983.77
2022-11-26T21:00:41.144Z,100983.68
2022-11-26T21:03:06.719Z,100981.24
2022-11-26T21:05:33.544Z,100978.75
2022-11-26T21:06:43.643Z,100992.36
2022-11-26T21:07:53.338Z,100986.09
2022-11-26T21:10:22.619Z,100981.19
2022-11-26T21:11:31.475Z,100989.50
2022-11-26T21:13:58.436Z,100987.20
2022-11-26T21:16:24.718Z,100986.31
2022-11-26T21:17:33.486Z,100991.30
2022-11-26T21:19:58.944Z,100987.09
2022-11-26T21:21:16.090Z,100986.59
2022-11-26T21:22:24.928Z,100987.09
2022-11-26T21:23:35.121Z,100992.76
2022-11-26T21:26:02.416Z,100981.59
2022-11-26T21:27:11.217Z,100992.66
2022-11-26T21:29:35.694Z,100989.57
2022-11-26T21:30:44.633Z,100997.74
2022-11-26T21:33:11.071Z,100996.27
2022-11-26T21:35:34.569Z,100997.69
2022-11-26T21:37:59.655Z,101000.86
2022-11-26T21:40:24.703Z,101003.52
2022-11-26T21:41:34.772Z,101009.80
2022-11-26T21:42:44.507Z,101011.50
2022-11-26T21:45:11.195Z,101002.35
2022-11-26T21:47:38.816Z,101004.87
2022-11-26T21:48:48.956Z,101007.73
2022-11-26T21:51:15.788Z,101006.92
2022-11-26T21:52:26.139Z,101013.55
2022-11-26T21:54:50.693Z,101008.13
2022-11-26T21:56:12.236Z,101006.76
2022-11-26T21:57:23.008Z,101011.23
2022-11-26T21:59:48.664Z,101004.25
2022-11-26T22:02:13.820Z,100998.12
2022-11-26T22:03:23.165Z,101008.28
2022-11-26T22:04:33.790Z,101002.39
2022-11-26T22:05:43.491Z,101005.31
2022-11-26T22:08:13.666Z,101001.30
2022-11-26T22:09:22.832Z,101005.89
2022-11-26T22:11:46.667Z,101001.83
2022-11-26T22:14:14.927Z,101006.95
2022-11-26T22:15:24.037Z,101007.09
2022-11-26T22:17:48.956Z,101005.46
2022-11-26T22:18:59.817Z,101003.85
